createdAt,value
2017-08-22T00:00:42.045Z,0
2017-08-22T00:01:43.470Z,0
2017-08-22T00:02:44.891Z,0
2017-08-22T00:03:46.317Z,0
2017-08-22T00:04:47.744Z,0
2017-08-22T00:05:49.170Z,0
2017-08-22T00:06:50.595Z,0
2017-08-22T00:07:52.023Z,0
2017-08-22T00:08:53.464Z,0
2017-08-22T00:09:54.868Z,0
2017-08-22T00:10:56.293Z,0
2017-08-22T00:11:57.716Z,0
2017-08-22T00:12:59.142Z,0
2017-08-22T00:14:00.570Z,0
2017-08-22T00:15:02.019Z,0
2017-08-22T00:16:03.447Z,0
2017-08-22T00:17:04.868Z,0
2017-08-22T00:18:06.291Z,0
2017-08-22T00:19:07.719Z,0
2017-08-22T00:20:09.142Z,0
2017-08-22T00:21:10.566Z,0
2017-08-22T00:22:11.990Z,0
2017-08-22T00:23:13.415Z,0
2017-08-22T00:24:14.839Z,0
2017-08-22T00:25:16.264Z,0
2017-08-22T00:26:17.690Z,0
2017-08-22T00:27:19.113Z,0
2017-08-22T00:28:20.538Z,0
2017-08-22T00:29:21.960Z,0
2017-08-22T00:30:23.385Z,0
2017-08-22T00:31:24.808Z,0
2017-08-22T00:32:26.234Z,0
2017-08-22T00:33:27.683Z,0
2017-08-22T00:34:29.086Z,0
2017-08-22T00:35:30.509Z,0
2017-08-22T00:36:31.941Z,0
2017-08-22T00:37:33.357Z,0
2017-08-22T00:38:34.778Z,0
2017-08-22T00:39:36.206Z,0
2017-08-22T00:40:37.637Z,0
2017-08-22T00:41:39.057Z,0
2017-08-22T00:42:40.482Z,0
2017-08-22T00:43:41.907Z,0
2017-08-22T00:44:43.331Z,0
2017-08-22T00:45:44.757Z,0
2017-08-22T00:46:46.180Z,0
2017-08-22T00:47:47.603Z,0
2017-08-22T00:48:49.030Z,0
2017-08-22T00:49:50.453Z,0
2017-08-22T00:50:51.876Z,0
2017-08-22T00:51:53.300Z,0
2017-08-22T00:52:54.724Z,0
2017-08-22T00:53:56.148Z,0
2017-08-22T00:54:57.572Z,0
2017-08-22T00:55:58.993Z,0
2017-08-22T00:57:00.420Z,0
2017-08-22T00:58:01.845Z,0
2017-08-22T00:59:03.268Z,0
2017-08-22T01:00:04.691Z,0
2017-08-22T01:01:06.110Z,0
2017-08-22T01:02:07.542Z,0
2017-08-22T01:03:08.967Z,0
2017-08-22T01:04:10.629Z,0
2017-08-22T01:05:12.006Z,0
2017-08-22T01:06:13.432Z,0
2017-08-22T01:07:14.856Z,0
2017-08-22T01:08:16.280Z,0
2017-08-22T01:09:17.701Z,0
2017-08-22T01:10:19.129Z,0
2017-08-22T01:11:20.550Z,0
2017-08-22T01:12:21.979Z,0
2017-08-22T01:13:23.403Z,0
2017-08-22T01:14:24.826Z,0
2017-08-22T01:15:26.253Z,0
2017-08-22T01:16:27.671Z,0
2017-08-22T01:17:29.098Z,0
2017-08-22T01:18:30.524Z,0
2017-08-22T01:19:31.951Z,0
2017-08-22T01:20:33.381Z,0
2017-08-22T01:21:34.800Z,0
2017-08-22T01:22:36.223Z,0
2017-08-22T01:23:37.649Z,0
2017-08-22T01:24:39.073Z,0
2017-08-22T01:25:40.495Z,0
2017-08-22T01:26:41.919Z,0
2017-08-22T01:27:43.345Z,0
2017-08-22T01:28:44.771Z,0
2017-08-22T01:29:46.194Z,0
2017-08-22T01:30:47.620Z,0
2017-08-22T01:31:49.044Z,0
2017-08-22T01:32:50.468Z,0
2017-08-22T01:33:51.898Z,0
2017-08-22T01:34:53.318Z,0
2017-08-22T01:35:54.742Z,0
2017-08-22T01:36:56.172Z,0
2017-08-22T01:37:57.595Z,0
2017-08-22T01:38:59.021Z,0
2017-08-22T01:40:00.446Z,0
2017-08-22T01:41:01.877Z,0
2017-08-22T01:42:03.291Z,0
2017-08-22T01:43:04.717Z,0
2017-08-22T01:44:06.166Z,0
2017-08-22T01:45:07.592Z,0
2017-08-22T01:46:09.016Z,0
2017-08-22T01:47:10.439Z,0
2017-08-22T01:48:11.864Z,0
2017-08-22T01:49:13.287Z,0
2017-08-22T01:50:14.712Z,0
2017-08-22T01:51:16.134Z,0
2017-08-22T01:52:17.562Z,0
2017-08-22T01:53:18.987Z,0
2017-08-22T01:54:20.414Z,0
2017-08-22T01:55:21.842Z,0
2017-08-22T01:56:23.269Z,0
2017-08-22T01:57:24.692Z,0
2017-08-22T01:58:26.120Z,0
2017-08-22T01:59:27.539Z,0
2017-08-22T02:00:28.963Z,0
2017-08-22T02:01:30.389Z,0
2017-08-22T02:02:31.816Z,0
2017-08-22T02:03:33.241Z,0
2017-08-22T02:04:34.664Z,0
2017-08-22T02:05:36.100Z,0
2017-08-22T02:06:37.515Z,0
2017-08-22T02:07:38.936Z,0
2017-08-22T02:08:40.359Z,0
2017-08-22T02:09:41.787Z,0
2017-08-22T02:10:43.210Z,0
2017-08-22T02:11:44.634Z,0
2017-08-22T02:12:46.061Z,0
2017-08-22T02:13:47.485Z,0
2017-08-22T02:14:48.910Z,0
2017-08-22T02:15:50.338Z,0
2017-08-22T02:16:51.783Z,0
2017-08-22T02:17:53.184Z,0
2017-08-22T02:18:54.610Z,0
2017-08-22T02:19:56.035Z,0
2017-08-22T02:20:57.458Z,0
2017-08-22T02:21:58.884Z,0
2017-08-22T02:23:00.309Z,0
2017-08-22T02:24:01.732Z,0
2017-08-22T02:25:03.165Z,0
2017-08-22T02:26:04.591Z,0
2017-08-22T02:27:06.017Z,0
2017-08-22T02:28:07.441Z,0
2017-08-22T02:29:08.864Z,0
2017-08-22T02:30:10.293Z,0
2017-08-22T02:31:11.713Z,0
2017-08-22T02:32:13.136Z,0
2017-08-22T02:33:14.561Z,0
2017-08-22T02:34:15.987Z,0
2017-08-22T02:35:17.409Z,0
2017-08-22T02:36:18.832Z,0
2017-08-22T02:37:20.259Z,0
2017-08-22T02:38:21.682Z,0
2017-08-22T02:39:23.107Z,0
2017-08-22T02:40:24.531Z,0
2017-08-22T02:41:25.956Z,0
2017-08-22T02:42:27.382Z,0
2017-08-22T02:43:28.811Z,0
2017-08-22T02:44:30.234Z,0
2017-08-22T02:45:31.658Z,0
2017-08-22T02:46:33.082Z,0
2017-08-22T02:47:34.506Z,0
2017-08-22T02:48:35.931Z,0
2017-08-22T02:49:37.365Z,0
2017-08-22T02:50:38.779Z,0
2017-08-22T02:51:40.203Z,0
2017-08-22T02:52:41.625Z,0
2017-08-22T02:53:43.049Z,0
2017-08-22T02:54:44.477Z,0
2017-08-22T02:55:45.900Z,0
2017-08-22T02:56:47.338Z,0
2017-08-22T02:57:48.764Z,0
2017-08-22T02:58:50.188Z,0
2017-08-22T02:59:51.616Z,0
2017-08-22T03:00:53.037Z,0
2017-08-22T03:01:54.486Z,0
2017-08-22T03:02:55.905Z,0
2017-08-22T03:03:57.329Z,0
2017-08-22T03:04:58.761Z,0
2017-08-22T03:06:00.184Z,0
2017-08-22T03:07:01.612Z,0
2017-08-22T03:08:03.037Z,0
2017-08-22T03:09:04.461Z,0
2017-08-22T03:10:05.884Z,0
2017-08-22T03:11:07.309Z,0
2017-08-22T03:12:08.736Z,0
2017-08-22T03:13:10.160Z,0
2017-08-22T03:14:11.584Z,0
2017-08-22T03:15:13.007Z,0
2017-08-22T03:16:14.431Z,0
2017-08-22T03:17:15.857Z,0
2017-08-22T03:18:17.282Z,0
2017-08-22T03:19:18.705Z,0
2017-08-22T03:20:20.127Z,0
2017-08-22T03:21:21.552Z,0
2017-08-22T03:22:22.976Z,0
2017-08-22T03:23:24.400Z,0
2017-08-22T03:24:25.822Z,0
2017-08-22T03:25:27.251Z,0
2017-08-22T03:26:28.674Z,0
2017-08-22T03:27:30.097Z,0
2017-08-22T03:28:31.523Z,0
2017-08-22T03:29:32.950Z,0
2017-08-22T03:30:34.373Z,0
2017-08-22T03:31:35.796Z,0
2017-08-22T03:32:37.223Z,0
2017-08-22T03:33:38.647Z,0
2017-08-22T03:34:40.073Z,0
2017-08-22T03:35:41.494Z,0
2017-08-22T03:36:42.921Z,0
2017-08-22T03:37:44.348Z,0
2017-08-22T03:38:45.771Z,0
2017-08-22T03:39:47.193Z,0
2017-08-22T03:40:48.618Z,0
2017-08-22T03:41:50.048Z,0
2017-08-22T03:42:51.471Z,0
2017-08-22T03:43:52.903Z,0
2017-08-22T03:44:54.323Z,0
2017-08-22T03:45:55.749Z,0
2017-08-22T03:46:57.170Z,0
2017-08-22T03:47:58.597Z,0
2017-08-22T03:49:00.021Z,0
2017-08-22T03:50:01.444Z,0
2017-08-22T03:51:02.867Z,0
2017-08-22T03:52:04.292Z,0
2017-08-22T03:53:05.719Z,0
2017-08-22T03:54:07.142Z,0
2017-08-22T03:55:08.565Z,0
2017-08-22T03:56:09.991Z,0
2017-08-22T03:57:11.412Z,0
2017-08-22T03:58:12.836Z,0
2017-08-22T03:59:14.258Z,0
2017-08-22T04:00:15.684Z,0
2017-08-22T04:01:17.106Z,0
2017-08-22T04:02:18.531Z,0
2017-08-22T04:03:19.957Z,0
2017-08-22T04:04:21.379Z,0
2017-08-22T04:05:22.805Z,0
2017-08-22T04:06:24.228Z,0
2017-08-22T04:07:25.671Z,0
2017-08-22T04:08:27.097Z,0
2017-08-22T04:09:28.530Z,0
2017-08-22T04:10:29.955Z,0
2017-08-22T04:11:31.378Z,0
2017-08-22T04:12:32.809Z,0
2017-08-22T04:13:34.234Z,0
2017-08-22T04:14:35.658Z,0
2017-08-22T04:15:37.081Z,0
2017-08-22T04:16:38.506Z,0
2017-08-22T04:17:39.931Z,0
2017-08-22T04:18:41.356Z,0
2017-08-22T04:19:42.777Z,0
2017-08-22T04:20:44.202Z,0
2017-08-22T04:21:45.630Z,0
2017-08-22T04:22:47.060Z,0
2017-08-22T04:23:48.486Z,0
2017-08-22T04:24:49.911Z,0
2017-08-22T04:25:51.335Z,0
2017-08-22T04:26:52.760Z,0
2017-08-22T04:27:54.184Z,0
2017-08-22T04:28:55.602Z,0
2017-08-22T04:29:57.030Z,0
2017-08-22T04:30:58.453Z,0
2017-08-22T04:31:59.883Z,0
2017-08-22T04:33:01.300Z,0
2017-08-22T04:34:02.725Z,0
2017-08-22T04:35:04.163Z,0
2017-08-22T04:36:05.587Z,0
2017-08-22T04:37:07.010Z,0
2017-08-22T04:38:08.434Z,0
2017-08-22T04:39:09.857Z,0
2017-08-22T04:40:11.280Z,0
2017-08-22T04:41:12.707Z,0
2017-08-22T04:42:14.136Z,0
2017-08-22T04:43:15.561Z,4
2017-08-22T04:44:16.985Z,4
2017-08-22T04:45:18.409Z,4
2017-08-22T04:46:19.834Z,4
2017-08-22T04:47:21.259Z,4
2017-08-22T04:48:22.684Z,4
2017-08-22T04:49:24.110Z,4
2017-08-22T04:50:25.532Z,0
2017-08-22T04:51:26.958Z,4
2017-08-22T04:52:28.382Z,4
2017-08-22T04:53:29.821Z,4
2017-08-22T04:54:31.254Z,4
2017-08-22T04:55:32.671Z,4
2017-08-22T04:56:34.093Z,4
2017-08-22T04:57:35.522Z,8
2017-08-22T04:58:36.944Z,8
2017-08-22T04:59:38.366Z,8
2017-08-22T05:00:39.791Z,4
2017-08-22T05:01:41.217Z,4
2017-08-22T05:02:42.640Z,4
2017-08-22T05:03:44.065Z,8
2017-08-22T05:04:45.488Z,8
2017-08-22T05:05:46.913Z,8
2017-08-22T05:06:48.332Z,8
2017-08-22T05:07:49.757Z,8
2017-08-22T05:08:51.184Z,8
2017-08-22T05:09:52.606Z,8
2017-08-22T05:10:54.034Z,12
2017-08-22T05:11:55.464Z,12
2017-08-22T05:12:56.883Z,8
2017-08-22T05:13:58.311Z,8
2017-08-22T05:14:59.735Z,8
2017-08-22T05:16:01.157Z,8
2017-08-22T05:17:02.590Z,12
2017-08-22T05:18:04.015Z,12
2017-08-22T05:19:05.440Z,12
2017-08-22T05:20:06.865Z,12
2017-08-22T05:21:08.292Z,12
2017-08-22T05:22:09.718Z,12
2017-08-22T05:23:11.144Z,12
2017-08-22T05:24:12.570Z,12
2017-08-22T05:25:13.996Z,12
2017-08-22T05:26:15.422Z,12
2017-08-22T05:27:16.844Z,12
2017-08-22T05:28:18.272Z,12
2017-08-22T05:29:19.700Z,12
2017-08-22T05:30:21.125Z,16
2017-08-22T05:31:22.550Z,16
2017-08-22T05:32:23.978Z,16
2017-08-22T05:33:25.401Z,16
2017-08-22T05:34:26.828Z,16
2017-08-22T05:35:28.255Z,16
2017-08-22T05:36:29.680Z,16
2017-08-22T05:37:31.107Z,16
2017-08-22T05:38:32.534Z,16
2017-08-22T05:39:33.958Z,16
2017-08-22T05:40:35.385Z,16
2017-08-22T05:41:36.814Z,16
2017-08-22T05:42:38.241Z,16
2017-08-22T05:43:39.666Z,16
2017-08-22T05:44:41.089Z,16
2017-08-22T05:45:42.514Z,16
2017-08-22T05:46:43.938Z,16
2017-08-22T05:47:45.366Z,16
2017-08-22T05:48:46.786Z,16
2017-08-22T05:49:48.218Z,16
2017-08-22T05:50:49.643Z,16
2017-08-22T05:51:51.071Z,16
2017-08-22T05:52:52.495Z,16
2017-08-22T05:53:53.920Z,16
2017-08-22T05:54:55.348Z,16
2017-08-22T05:55:56.772Z,16
2017-08-22T05:56:58.199Z,16
2017-08-22T05:57:59.623Z,20
2017-08-22T05:59:01.050Z,20
2017-08-22T06:00:02.475Z,20
2017-08-22T06:01:03.947Z,20
2017-08-22T06:02:05.373Z,20
2017-08-22T06:03:06.797Z,20
2017-08-22T06:04:08.222Z,16
2017-08-22T06:05:09.656Z,20
2017-08-22T06:06:11.073Z,20
2017-08-22T06:07:12.496Z,20
2017-08-22T06:08:13.936Z,20
2017-08-22T06:09:15.349Z,24
2017-08-22T06:10:16.773Z,24
2017-08-22T06:11:18.197Z,24
2017-08-22T06:12:19.625Z,24
2017-08-22T06:13:21.049Z,24
2017-08-22T06:14:22.476Z,24
2017-08-22T06:15:23.901Z,20
2017-08-22T06:16:25.327Z,24
2017-08-22T06:17:26.785Z,24
2017-08-22T06:18:28.181Z,24
2017-08-22T06:19:29.616Z,24
2017-08-22T06:20:31.044Z,24
2017-08-22T06:21:32.475Z,28
2017-08-22T06:22:33.903Z,28
2017-08-22T06:23:35.327Z,28
2017-08-22T06:24:36.753Z,32
2017-08-22T06:25:38.178Z,32
2017-08-22T06:26:39.602Z,32
2017-08-22T06:27:41.029Z,32
2017-08-22T06:28:42.454Z,32
2017-08-22T06:29:43.869Z,32
2017-08-22T06:30:45.315Z,32
2017-08-22T06:31:46.742Z,36
2017-08-22T06:32:48.165Z,36
2017-08-22T06:33:49.590Z,36
2017-08-22T06:34:51.019Z,36
2017-08-22T06:35:52.443Z,32
2017-08-22T06:36:53.872Z,32
2017-08-22T06:37:55.295Z,36
2017-08-22T06:38:56.720Z,36
2017-08-22T06:39:58.140Z,36
2017-08-22T06:40:59.569Z,36
2017-08-22T06:42:00.998Z,36
2017-08-22T06:43:02.421Z,36
2017-08-22T06:44:03.847Z,36
2017-08-22T06:45:05.275Z,36
2017-08-22T06:46:06.698Z,32
2017-08-22T06:47:08.160Z,28
2017-08-22T06:48:09.585Z,36
2017-08-22T06:49:11.009Z,32
2017-08-22T06:50:12.433Z,36
2017-08-22T06:51:13.858Z,40
2017-08-22T06:52:15.284Z,40
2017-08-22T06:53:16.710Z,40
2017-08-22T06:54:18.141Z,40
2017-08-22T06:55:19.561Z,44
2017-08-22T06:56:20.986Z,40
2017-08-22T06:57:22.411Z,40
2017-08-22T06:58:23.835Z,40
2017-08-22T06:59:25.262Z,40
2017-08-22T07:00:26.697Z,44
2017-08-22T07:01:28.121Z,44
2017-08-22T07:02:29.546Z,44
2017-08-22T07:03:30.973Z,44
2017-08-22T07:04:32.397Z,40
2017-08-22T07:05:33.824Z,44
2017-08-22T07:06:35.252Z,40
2017-08-22T07:07:36.670Z,44
2017-08-22T07:08:38.102Z,44
2017-08-22T07:09:39.527Z,44
2017-08-22T07:10:40.953Z,44
2017-08-22T07:11:42.377Z,48
2017-08-22T07:12:43.812Z,48
2017-08-22T07:13:45.240Z,48
2017-08-22T07:14:46.666Z,48
2017-08-22T07:15:48.091Z,44
2017-08-22T07:16:49.517Z,44
2017-08-22T07:17:50.940Z,48
2017-08-22T07:18:52.365Z,48
2017-08-22T07:19:53.792Z,48
2017-08-22T07:20:55.217Z,48
2017-08-22T07:21:56.640Z,44
2017-08-22T07:22:58.065Z,48
2017-08-22T07:23:59.492Z,48
2017-08-22T07:25:00.915Z,48
2017-08-22T07:26:02.343Z,52
2017-08-22T07:27:03.776Z,52
2017-08-22T07:28:05.204Z,48
2017-08-22T07:29:06.627Z,52
2017-08-22T07:30:08.053Z,52
2017-08-22T07:31:09.478Z,52
2017-08-22T07:32:10.914Z,52
2017-08-22T07:33:12.338Z,56
2017-08-22T07:34:13.767Z,56
2017-08-22T07:35:15.193Z,56
2017-08-22T07:36:16.622Z,60
2017-08-22T07:37:18.048Z,60
2017-08-22T07:38:19.474Z,60
2017-08-22T07:39:20.900Z,64
2017-08-22T07:40:22.331Z,60
2017-08-22T07:41:23.752Z,60
2017-08-22T07:42:25.177Z,60
2017-08-22T07:43:26.602Z,64
2017-08-22T07:44:28.029Z,64
2017-08-22T07:45:29.457Z,64
2017-08-22T07:46:30.879Z,72
2017-08-22T07:47:32.341Z,68
2017-08-22T07:48:33.765Z,76
2017-08-22T07:49:35.194Z,72
2017-08-22T07:50:36.624Z,76
2017-08-22T07:51:38.045Z,76
2017-08-22T07:52:39.471Z,76
2017-08-22T07:53:40.898Z,72
2017-08-22T07:54:42.325Z,72
2017-08-22T07:55:43.751Z,68
2017-08-22T07:56:45.187Z,64
2017-08-22T07:57:46.602Z,64
2017-08-22T07:58:48.033Z,60
2017-08-22T07:59:49.455Z,60
2017-08-22T08:00:50.880Z,56
2017-08-22T08:01:52.306Z,60
2017-08-22T08:02:53.731Z,56
2017-08-22T08:03:55.157Z,56
2017-08-22T08:04:56.593Z,56
2017-08-22T08:05:58.016Z,60
2017-08-22T08:06:59.443Z,60
2017-08-22T08:08:00.869Z,60
2017-08-22T08:09:02.296Z,60
2017-08-22T08:10:03.797Z,60
2017-08-22T08:11:05.242Z,60
2017-08-22T08:12:06.666Z,60
2017-08-22T08:13:08.094Z,60
2017-08-22T08:14:09.519Z,60
2017-08-22T08:15:10.945Z,60
2017-08-22T08:16:12.370Z,64
2017-08-22T08:17:13.795Z,64
2017-08-22T08:18:15.225Z,60
2017-08-22T08:19:16.651Z,60
2017-08-22T08:20:18.075Z,60
2017-08-22T08:21:19.505Z,60
2017-08-22T08:22:20.932Z,60
2017-08-22T08:23:22.357Z,60
2017-08-22T08:24:23.783Z,60
2017-08-22T08:25:25.212Z,60
2017-08-22T08:26:26.650Z,60
2017-08-22T08:27:28.077Z,64
2017-08-22T08:28:29.502Z,60
2017-08-22T08:29:30.929Z,60
2017-08-22T08:30:32.354Z,60
2017-08-22T08:31:33.779Z,60
2017-08-22T08:32:35.211Z,60
2017-08-22T08:33:36.641Z,60
2017-08-22T08:34:38.067Z,60
2017-08-22T08:35:39.492Z,60
2017-08-22T08:36:41.028Z,56
2017-08-22T08:37:42.462Z,60
2017-08-22T08:38:43.890Z,60
2017-08-22T08:39:45.324Z,60
2017-08-22T08:40:46.748Z,64
2017-08-22T08:41:48.174Z,64
2017-08-22T08:42:49.602Z,64
2017-08-22T08:43:51.030Z,60
2017-08-22T08:44:52.461Z,60
2017-08-22T08:45:53.886Z,64
2017-08-22T08:46:55.343Z,60
2017-08-22T08:47:56.771Z,64
2017-08-22T08:48:58.196Z,60
2017-08-22T08:49:59.627Z,64
2017-08-22T08:51:01.080Z,60
2017-08-22T08:52:02.507Z,64
2017-08-22T08:53:03.935Z,64
2017-08-22T08:54:05.361Z,64
2017-08-22T08:55:06.785Z,64
2017-08-22T08:56:08.220Z,64
2017-08-22T08:57:09.649Z,60
2017-08-22T08:58:11.074Z,64
2017-08-22T08:59:12.501Z,56
2017-08-22T09:00:13.928Z,64
2017-08-22T09:01:15.352Z,64
2017-08-22T09:02:16.781Z,64
2017-08-22T09:03:18.212Z,64
2017-08-22T09:04:19.639Z,68
2017-08-22T09:05:21.066Z,68
2017-08-22T09:06:22.494Z,68
2017-08-22T09:07:23.919Z,68
2017-08-22T09:08:25.349Z,68
2017-08-22T09:09:26.774Z,68
2017-08-22T09:10:28.214Z,68
2017-08-22T09:11:29.640Z,68
2017-08-22T09:12:31.064Z,68
2017-08-22T09:13:32.490Z,68
2017-08-22T09:14:33.918Z,68
2017-08-22T09:15:35.345Z,68
2017-08-22T09:16:36.770Z,68
2017-08-22T09:17:38.201Z,64
2017-08-22T09:18:39.627Z,68
2017-08-22T09:19:41.053Z,64
2017-08-22T09:20:42.484Z,64
2017-08-22T09:21:43.915Z,68
2017-08-22T09:22:45.338Z,68
2017-08-22T09:23:46.765Z,68
2017-08-22T09:24:48.194Z,68
2017-08-22T09:25:49.624Z,68
2017-08-22T09:26:51.050Z,72
2017-08-22T09:27:52.481Z,68
2017-08-22T09:28:53.904Z,72
2017-08-22T09:29:55.331Z,72
2017-08-22T09:30:56.760Z,68
2017-08-22T09:31:58.184Z,72
2017-08-22T09:32:59.614Z,72
2017-08-22T09:34:01.046Z,68
2017-08-22T09:35:02.470Z,72
2017-08-22T09:36:03.898Z,72
2017-08-22T09:37:05.325Z,72
2017-08-22T09:38:06.754Z,72
2017-08-22T09:39:08.179Z,68
2017-08-22T09:40:09.607Z,68
2017-08-22T09:41:11.037Z,68
2017-08-22T09:42:12.464Z,72
2017-08-22T09:43:13.890Z,72
2017-08-22T09:44:15.321Z,72
2017-08-22T09:45:16.748Z,68
2017-08-22T09:46:18.177Z,72
2017-08-22T09:47:19.604Z,72
2017-08-22T09:48:21.032Z,72
2017-08-22T09:49:22.460Z,72
2017-08-22T09:50:23.885Z,72
2017-08-22T09:51:25.315Z,76
2017-08-22T09:52:26.736Z,72
2017-08-22T09:53:28.169Z,76
2017-08-22T09:54:29.598Z,72
2017-08-22T09:55:31.031Z,76
2017-08-22T09:56:32.459Z,72
2017-08-22T09:57:33.886Z,72
2017-08-22T09:58:35.314Z,76
2017-08-22T09:59:36.745Z,72
2017-08-22T10:00:38.165Z,72
2017-08-22T10:01:39.593Z,72
2017-08-22T10:02:41.027Z,72
2017-08-22T10:03:42.447Z,76
2017-08-22T10:04:43.889Z,76
2017-08-22T10:05:45.321Z,76
2017-08-22T10:06:46.749Z,76
2017-08-22T10:07:48.178Z,76
2017-08-22T10:08:49.605Z,76
2017-08-22T10:09:51.030Z,76
2017-08-22T10:10:52.461Z,72
2017-08-22T10:11:53.889Z,72
2017-08-22T10:12:55.318Z,76
2017-08-22T10:13:56.745Z,76
2017-08-22T10:14:58.195Z,76
2017-08-22T10:15:59.603Z,80
2017-08-22T10:17:01.031Z,80
2017-08-22T10:18:02.458Z,80
2017-08-22T10:19:03.885Z,80
2017-08-22T10:20:05.315Z,76
2017-08-22T10:21:06.745Z,80
2017-08-22T10:22:08.172Z,84
2017-08-22T10:23:09.601Z,80
2017-08-22T10:24:11.026Z,84
2017-08-22T10:25:12.458Z,80
2017-08-22T10:26:13.883Z,84
2017-08-22T10:27:15.310Z,84
2017-08-22T10:28:16.738Z,80
2017-08-22T10:29:18.167Z,80
2017-08-22T10:30:19.596Z,84
2017-08-22T10:31:21.066Z,88
2017-08-22T10:32:22.492Z,88
2017-08-22T10:33:23.920Z,88
2017-08-22T10:34:25.349Z,96
2017-08-22T10:35:26.789Z,96
2017-08-22T10:36:28.217Z,100
2017-08-22T10:37:29.650Z,104
2017-08-22T10:38:31.081Z,108
2017-08-22T10:39:32.513Z,108
2017-08-22T10:40:33.942Z,104
2017-08-22T10:41:35.373Z,108
2017-08-22T10:42:36.804Z,112
2017-08-22T10:43:38.235Z,112
2017-08-22T10:44:39.667Z,112
2017-08-22T10:45:41.104Z,116
2017-08-22T10:46:42.534Z,120
2017-08-22T10:47:43.963Z,120
2017-08-22T10:48:45.397Z,124
2017-08-22T10:49:46.827Z,124
2017-08-22T10:50:48.261Z,120
2017-08-22T10:51:49.693Z,120
2017-08-22T10:52:51.121Z,120
2017-08-22T10:53:52.551Z,120
2017-08-22T10:54:53.984Z,128
2017-08-22T10:55:55.416Z,136
2017-08-22T10:56:56.846Z,144
2017-08-22T10:57:58.277Z,120
2017-08-22T10:58:59.709Z,124
2017-08-22T11:00:01.141Z,144
2017-08-22T11:01:02.581Z,136
2017-08-22T11:02:04.008Z,120
2017-08-22T11:03:05.437Z,112
2017-08-22T11:04:06.866Z,112
2017-08-22T11:05:08.294Z,108
2017-08-22T11:06:09.724Z,96
2017-08-22T11:07:11.154Z,104
2017-08-22T11:08:12.586Z,112
2017-08-22T11:09:14.018Z,124
2017-08-22T11:10:15.448Z,124
2017-08-22T11:11:16.875Z,112
2017-08-22T11:12:18.305Z,132
2017-08-22T11:13:19.734Z,128
2017-08-22T11:14:21.162Z,132
2017-08-22T11:15:22.595Z,140
2017-08-22T11:16:24.022Z,140
2017-08-22T11:17:25.451Z,148
2017-08-22T11:18:26.879Z,144
2017-08-22T11:19:28.308Z,132
2017-08-22T11:20:29.739Z,136
2017-08-22T11:21:31.170Z,144
2017-08-22T11:22:32.660Z,156
2017-08-22T11:23:34.088Z,152
2017-08-22T11:24:35.515Z,180
2017-08-22T11:25:36.946Z,192
2017-08-22T11:26:38.375Z,204
2017-08-22T11:27:39.806Z,204
2017-08-22T11:28:41.236Z,172
2017-08-22T11:29:42.664Z,152
2017-08-22T11:30:44.091Z,136
2017-08-22T11:31:45.520Z,144
2017-08-22T11:32:46.951Z,124
2017-08-22T11:33:48.379Z,112
2017-08-22T11:34:49.810Z,120
2017-08-22T11:35:51.238Z,128
2017-08-22T11:36:52.669Z,152
2017-08-22T11:37:54.099Z,168
2017-08-22T11:38:55.527Z,184
2017-08-22T11:39:56.957Z,196
2017-08-22T11:40:58.385Z,212
2017-08-22T11:41:59.815Z,216
2017-08-22T11:43:01.246Z,216
2017-08-22T11:44:02.676Z,172
2017-08-22T11:45:04.105Z,148
2017-08-22T11:46:05.536Z,124
2017-08-22T11:47:06.969Z,140
2017-08-22T11:48:08.397Z,180
2017-08-22T11:49:09.820Z,188
2017-08-22T11:50:11.258Z,188
2017-08-22T11:51:12.691Z,200
2017-08-22T11:52:14.118Z,196
2017-08-22T11:53:15.547Z,176
2017-08-22T11:54:16.979Z,152
2017-08-22T11:55:18.408Z,120
2017-08-22T11:56:19.836Z,136
2017-08-22T11:57:21.279Z,164
2017-08-22T11:58:22.698Z,172
2017-08-22T11:59:24.127Z,172
2017-08-22T12:00:25.557Z,172
2017-08-22T12:01:26.985Z,172
2017-08-22T12:02:28.416Z,176
2017-08-22T12:03:29.845Z,180
2017-08-22T12:04:31.279Z,184
2017-08-22T12:05:32.704Z,188
2017-08-22T12:06:34.135Z,184
2017-08-22T12:07:35.565Z,184
2017-08-22T12:08:36.995Z,156
2017-08-22T12:09:38.427Z,212
2017-08-22T12:10:39.855Z,212
2017-08-22T12:11:41.343Z,200
2017-08-22T12:12:42.781Z,180
2017-08-22T12:13:44.203Z,184
2017-08-22T12:14:45.641Z,180
2017-08-22T12:15:47.070Z,184
2017-08-22T12:16:48.500Z,180
2017-08-22T12:17:49.928Z,160
2017-08-22T12:18:51.370Z,144
2017-08-22T12:19:52.801Z,148
2017-08-22T12:20:54.230Z,184
2017-08-22T12:21:55.659Z,188
2017-08-22T12:22:57.092Z,196
2017-08-22T12:23:58.522Z,192
2017-08-22T12:24:59.953Z,196
2017-08-22T12:26:01.383Z,200
2017-08-22T12:27:02.812Z,200
2017-08-22T12:28:04.245Z,208
2017-08-22T12:29:05.708Z,204
2017-08-22T12:30:07.144Z,208
2017-08-22T12:31:08.578Z,208
2017-08-22T12:32:10.008Z,212
2017-08-22T12:33:11.443Z,208
2017-08-22T12:34:12.869Z,216
2017-08-22T12:35:14.300Z,208
2017-08-22T12:36:15.728Z,192
2017-08-22T12:37:17.162Z,212
2017-08-22T12:38:18.595Z,216
2017-08-22T12:39:20.022Z,192
2017-08-22T12:40:21.453Z,172
2017-08-22T12:41:22.885Z,132
2017-08-22T12:42:24.316Z,216
2017-08-22T12:43:25.745Z,136
2017-08-22T12:44:27.174Z,128
2017-08-22T12:45:28.610Z,112
2017-08-22T12:46:30.045Z,116
2017-08-22T12:47:31.472Z,148
2017-08-22T12:48:32.903Z,152
2017-08-22T12:49:34.335Z,228
2017-08-22T12:50:35.773Z,196
2017-08-22T12:51:37.197Z,236
2017-08-22T12:52:38.627Z,280
2017-08-22T12:53:40.057Z,188
2017-08-22T12:54:41.489Z,184
2017-08-22T12:55:42.920Z,168
2017-08-22T12:56:44.349Z,156
2017-08-22T12:57:45.781Z,144
2017-08-22T12:58:47.208Z,140
2017-08-22T12:59:48.639Z,140
2017-08-22T13:00:50.076Z,152
2017-08-22T13:01:51.506Z,172
2017-08-22T13:02:52.938Z,188
2017-08-22T13:03:54.369Z,188
2017-08-22T13:04:55.797Z,188
2017-08-22T13:05:57.237Z,204
2017-08-22T13:06:58.668Z,304
2017-08-22T13:08:00.101Z,324
2017-08-22T13:09:01.555Z,300
2017-08-22T13:10:02.962Z,340
2017-08-22T13:11:04.395Z,332
2017-08-22T13:12:05.824Z,336
2017-08-22T13:13:07.255Z,348
2017-08-22T13:14:08.686Z,348
2017-08-22T13:15:10.117Z,348
2017-08-22T13:16:11.574Z,340
2017-08-22T13:17:13.006Z,340
2017-08-22T13:18:14.439Z,348
2017-08-22T13:19:15.868Z,364
2017-08-22T13:20:17.299Z,368
2017-08-22T13:21:18.728Z,364
2017-08-22T13:22:20.176Z,372
2017-08-22T13:23:21.609Z,372
2017-08-22T13:24:23.040Z,376
2017-08-22T13:25:24.468Z,368
2017-08-22T13:26:25.903Z,368
2017-08-22T13:27:27.332Z,368
2017-08-22T13:28:28.764Z,372
2017-08-22T13:29:30.195Z,300
2017-08-22T13:30:31.626Z,412
2017-08-22T13:31:33.055Z,452
2017-08-22T13:32:34.490Z,472
2017-08-22T13:33:35.917Z,500
2017-08-22T13:34:37.349Z,528
2017-08-22T13:35:38.780Z,556
2017-08-22T13:36:40.241Z,728
2017-08-22T13:37:41.665Z,896
2017-08-22T13:38:43.090Z,1132
2017-08-22T13:39:44.532Z,1252
2017-08-22T13:40:45.966Z,1344
2017-08-22T13:41:47.400Z,1424
2017-08-22T13:42:48.833Z,1076
2017-08-22T13:43:50.265Z,784
2017-08-22T13:44:51.694Z,532
2017-08-22T13:45:53.127Z,1844
2017-08-22T13:46:54.560Z,1788
2017-08-22T13:47:55.994Z,1908
2017-08-22T13:48:57.429Z,1568
2017-08-22T13:49:58.863Z,1480
2017-08-22T13:51:00.294Z,1396
2017-08-22T13:52:01.727Z,1488
2017-08-22T13:53:03.180Z,1500
2017-08-22T13:54:04.614Z,1524
2017-08-22T13:55:06.051Z,2204
2017-08-22T13:56:07.493Z,1544
2017-08-22T13:57:08.915Z,1324
2017-08-22T13:58:10.350Z,1172
2017-08-22T13:59:11.786Z,1192
2017-08-22T14:00:13.247Z,1140
2017-08-22T14:01:14.681Z,648
2017-08-22T14:02:16.113Z,224
2017-08-22T14:03:17.542Z,228
2017-08-22T14:04:19.021Z,204
2017-08-22T14:05:20.451Z,200
2017-08-22T14:06:21.886Z,208
2017-08-22T14:07:23.316Z,224
2017-08-22T14:08:24.751Z,208
2017-08-22T14:09:26.182Z,196
2017-08-22T14:10:27.615Z,336
2017-08-22T14:11:29.046Z,776
2017-08-22T14:12:30.480Z,608
2017-08-22T14:13:31.912Z,884
2017-08-22T14:14:33.345Z,1040
2017-08-22T14:15:34.798Z,1116
2017-08-22T14:16:36.229Z,1164
2017-08-22T14:17:37.666Z,1164
2017-08-22T14:18:39.097Z,1116
2017-08-22T14:19:40.532Z,1068
2017-08-22T14:20:41.966Z,1100
2017-08-22T14:21:43.412Z,776
2017-08-22T14:22:44.838Z,1112
2017-08-22T14:23:46.271Z,1092
2017-08-22T14:24:47.706Z,1088
2017-08-22T14:25:49.143Z,1084
2017-08-22T14:26:50.576Z,1092
2017-08-22T14:27:52.009Z,1104
2017-08-22T14:28:53.442Z,1120
2017-08-22T14:29:54.888Z,1072
2017-08-22T14:30:56.313Z,1036
2017-08-22T14:31:57.751Z,1048
2017-08-22T14:32:59.182Z,1044
2017-08-22T14:34:00.620Z,1020
2017-08-22T14:35:02.055Z,992
2017-08-22T14:36:03.498Z,972
2017-08-22T14:37:04.936Z,960